Latest Weather Observations for Maatsuyker Island

IDT60801

Issued at 3:01 pm EDT Sunday 29 March 2015 (issued every 30 minutes, with the page automatically refreshed every 10 minutes)

About weather observations | Map of weather stations | Latest weather observations for TAS | Other Formats
Station Details ID: 094041 Name: MAATSUYKER ISLAND LIGHTHOUSE Lat: -43.66 Lon: 146.27 Height: 146.5 m
Data from the previous 72 hours. | See also: Recent months at Maatsuyker Island
Date/Time
EDT
Temp
°C
App
Temp
°C
Dew
Point
Rel
Hum
%
Delta-T
°C
Wind Press
QNH
hPa
Press
MSL
hPa
Rain
since 9 am
mm
Dir
 
Spd
km/h
Gust
km/h
Spd
kts
Gust
kts
29/03:00pm 12.3 3.1 8.1 75 2.1 NW 46 54 25 29 1014.7 - 2.4
29/02:30pm 12.2 3.3 7.7 74 2.2 NW 44 50 24 27 1015.0 - 2.4
29/02:00pm 12.1 3.1 7.1 71 2.4 NW 44 52 24 28 1014.9 - 2.4
29/01:30pm 11.9 2.1 6.9 71 2.4 NW 48 57 26 31 1014.8 - 2.4
29/01:00pm 11.6 2.7 7.5 76 2.0 NW 44 50 24 27 1014.7 - 2.4
29/12:30pm 11.5 2.8 7.8 78 1.8 WNW 43 48 23 26 1014.7 - 2.4
29/12:00pm 11.3 2.8 8.7 84 1.3 WNW 43 50 23 27 1014.5 1014.3 2.4
29/11:30am 10.9 1.7 8.0 82 1.4 WNW 46 56 25 30 1014.7 - 2.4
29/11:00am 10.2 1.1 8.4 89 0.9 WNW 46 56 25 30 1014.3 - 2.4
29/10:30am 9.6 1.2 8.8 95 0.4 WNW 43 50 23 27 1014.3 - 2.2
29/10:00am 11.3 2.5 11.1 99 0.1 WNW 48 59 26 32 1013.6 - 2.0
29/09:56am 11.3 2.9 11.1 99 0.1 WNW 46 65 25 35 1013.7 - 1.8
29/09:30am 11.3 -1.1 10.9 97 0.2 NW 67 76 36 41 1012.4 - 1.6
29/09:15am 11.6 1.3 11.2 97 0.2 NW 56 80 30 43 1012.4 - 1.2
29/09:09am 11.4 -2.7 11.0 97 0.2 NW 76 96 41 52 1012.0 - 1.0
29/09:00am 13.5 -0.1 11.4 87 1.1 WNW 74 96 40 52 1010.2 1009.9 0.6
29/08:30am 13.2 -1.6 11.3 88 1.0 NNW 80 100 43 54 1010.2 - 0.4
29/08:00am 13.5 0.6 11.1 85 1.3 NNW 70 91 38 49 1010.3 - 0.4
29/07:30am 13.0 0.7 11.5 91 0.8 NNW 67 91 36 49 1010.4 - 0.4
29/07:28am 13.2 0.8 11.1 87 1.1 NNW 67 91 36 49 1010.1 - 0.4
29/07:00am 12.9 3.2 10.6 86 1.2 NNW 52 70 28 38 1010.6 - 0.4
29/06:37am 12.4 3.9 10.7 89 0.9 NNW 46 65 25 35 1010.9 - 0.2
29/06:30am 12.2 2.9 10.7 90 0.8 NNW 50 65 27 35 1011.0 - 0.2
29/06:20am 12.3 3.4 10.6 89 0.9 NNW 48 69 26 37 1010.9 - 0.2
29/06:00am 12.2 2.3 9.9 86 1.2 NNW 52 65 28 35 1011.0 1010.9 0.2
29/05:33am 12.3 2.2 9.1 81 1.6 NNW 52 70 28 38 1011.2 - 0.2
29/05:30am 12.2 1.8 9.2 82 1.5 NNW 54 70 29 38 1011.1 - 0.2
29/05:02am 12.3 1.9 9.1 81 1.6 NNW 54 72 29 39 1011.0 - 0.2
29/05:00am 12.4 2.4 9.5 82 1.5 NNW 52 65 28 35 1011.3 - 0.2
29/04:31am 12.2 2.9 9.0 81 1.6 NNW 48 67 26 36 1011.4 - 0.2
29/04:30am 12.1 2.8 9.1 82 1.5 NNW 48 65 26 35 1011.4 - 0.2
29/04:12am 11.7 2.5 9.5 86 1.1 NNW 48 69 26 37 1011.2 - 0.2
29/04:00am 11.4 2.7 9.8 90 0.8 NNW 46 61 25 33 1011.7 - 0.2
29/03:42am 11.9 3.1 9.5 85 1.2 NNW 46 65 25 35 1011.5 - 0.2
29/03:30am 11.8 2.1 9.2 84 1.3 NNW 50 67 27 36 1011.4 - 0.2
29/03:00am 11.7 2.9 9.5 86 1.1 NNW 46 61 25 33 1012.8 1012.7 0.2
29/02:46am 11.5 2.7 9.5 87 1.0 NNW 46 65 25 35 1012.8 - 0.2
29/02:30am 11.5 3.6 9.5 87 1.0 NNW 41 52 22 28 1012.9 - 0.2
29/02:00am 11.5 3.6 9.3 86 1.1 NNW 41 56 22 30 1013.1 - 0.2
29/01:30am 11.4 3.5 9.2 86 1.1 NNW 41 57 22 31 1013.6 - 0.2
29/01:00am 11.2 2.9 9.2 87 1.0 NNW 43 54 23 29 1014.1 - 0.2
29/12:36am 11.3 2.9 9.1 86 1.1 NNW 43 61 23 33 1014.4 - 0.2
29/12:30am 11.6 3.0 8.8 83 1.4 NNW 44 61 24 33 1014.5 - 0.2
29/12:00am 11.6 4.3 8.8 83 1.4 NNW 37 48 20 26 1014.9 1014.8 0.2
 
Date/Time
EDT
Temp
°C
App
Temp
°C
Dew
Point
Rel
Hum
%
Delta-T
°C
Wind Press
QNH
hPa
Press
MSL
hPa
Rain
since 9 am
mm
Dir
 
Spd
km/h
Gust
km/h
Spd
kts
Gust
kts
28/11:30pm 11.5 3.9 8.9 84 1.3 NNW 39 54 21 29 1015.2 - 0.2
28/11:00pm 11.5 3.5 9.1 85 1.2 NNW 41 56 22 30 1015.5 - 0.2
28/10:30pm 11.3 3.8 9.3 87 1.0 NNW 39 50 21 27 1016.0 - 0.2
28/10:00pm 11.6 3.7 9.4 86 1.1 NNW 41 50 22 27 1016.4 - 0.2
28/09:30pm 11.1 3.7 9.9 92 0.6 NNW 39 50 21 27 1016.7 - 0.2
28/09:00pm 11.0 3.5 9.6 91 0.7 NNW 39 50 21 27 1016.7 1016.6 0.2
28/08:30pm 11.3 3.4 9.3 87 1.0 NNW 41 56 22 30 1016.4 - 0.2
28/08:28pm 11.4 3.5 9.2 86 1.1 NNW 41 59 22 32 1016.5 - 0.2
28/08:00pm 11.6 4.0 9.0 84 1.3 NNW 39 50 21 27 1016.7 - 0.2
28/07:30pm 11.4 3.5 9.2 86 1.1 NNW 41 52 22 28 1017.0 - 0.2
28/07:00pm 11.4 3.0 9.0 85 1.2 NNW 43 56 23 30 1016.9 - 0.2
28/06:30pm 11.5 3.9 8.9 84 1.3 NNW 39 50 21 27 1017.0 - 0.2
28/06:00pm 11.4 4.0 9.8 90 0.8 NNW 39 50 21 27 1017.1 1017.1 0.2
28/05:30pm 11.2 3.0 9.8 91 0.7 NNW 43 52 23 28 1017.4 - 0.2
28/05:00pm 11.8 2.5 9.2 84 1.3 NNW 48 63 26 34 1017.5 - 0.2
28/04:30pm 12.1 2.9 7.8 75 2.1 NNW 46 57 25 31 1017.7 - 0.2
28/04:00pm 12.2 2.4 7.0 70 2.5 NNW 48 59 26 32 1017.8 - 0.2
28/03:35pm 11.8 3.3 8.4 80 1.7 NNW 43 61 23 33 1018.0 - 0.2
28/03:30pm 11.7 3.0 7.8 77 1.9 NW 43 50 23 27 1018.2 - 0.2
28/03:00pm 12.0 2.6 7.3 73 2.3 W 46 59 25 32 1018.1 1018.0 0.2
28/02:30pm 12.3 1.7 7.1 70 2.5 NNW 52 59 28 32 1018.3 - 0.2
28/02:00pm 11.9 2.6 7.4 74 2.2 NNW 46 54 25 29 1018.7 - 0.2
28/01:30pm 11.9 1.3 6.9 71 2.4 NW 52 59 28 32 1019.1 - 0.2
28/01:00pm 11.7 2.0 7.4 75 2.1 NNW 48 61 26 33 1019.4 - 0.2
28/12:30pm 11.5 1.9 6.4 71 2.4 NW 46 52 25 28 1019.6 - 0.2
28/12:00pm 12.1 2.3 5.4 63 3.1 NW 46 54 25 29 1020.1 1020.0 0.2
28/11:30am 11.5 0.5 5.0 64 3.0 NW 52 57 28 31 1020.2 - 0.2
28/11:00am 11.1 0.1 5.2 67 2.7 NW 52 57 28 31 1020.4 - 0.2
28/10:30am 10.9 0.1 6.2 73 2.2 NW 52 67 28 36 1020.6 - 0.2
28/10:00am 10.7 0.8 6.5 75 2.0 NW 48 57 26 31 1020.5 - 0.0
28/09:30am 10.3 0.6 7.6 83 1.3 NW 48 54 26 29 1020.6 - 0.0
28/09:00am 10.0 2.5 7.9 87 1.0 W 37 52 20 28 1020.5 1020.4 1.4
28/08:30am 10.1 1.1 7.2 82 1.4 NW 44 56 24 30 1020.1 - 1.4
28/08:00am 10.0 1.3 7.5 84 1.2 WNW 43 48 23 26 1020.3 - 1.4
28/07:30am 10.1 1.9 8.3 88 0.9 WNW 41 46 22 25 1020.2 - 1.4
28/07:00am 10.0 2.7 8.6 91 0.7 NW 37 50 20 27 1020.0 - 1.4
28/06:30am 9.6 1.5 8.6 93 0.5 WNW 41 48 22 26 1020.1 - 1.4
28/06:00am 9.8 4.3 9.0 95 0.4 NW 28 39 15 21 1020.3 1020.2 1.4
28/05:30am 9.5 1.4 8.7 95 0.4 NW 41 48 22 26 1020.0 - 1.2
28/05:00am 10.3 1.8 9.1 92 0.6 NW 44 54 24 29 1019.6 - 1.2
28/04:32am 10.5 3.6 8.9 90 0.8 NW 35 56 19 30 1019.6 - 1.2
28/04:30am 10.5 4.1 9.3 92 0.6 NW 33 44 18 24 1019.8 - 1.2
28/04:00am 10.6 3.0 7.7 82 1.4 NW 37 43 20 23 1020.0 - 1.2
28/03:30am 11.0 2.7 6.3 73 2.2 NW 39 44 21 24 1020.1 - 1.2
28/03:00am 11.0 3.5 6.1 72 2.3 NW 35 43 19 23 1020.3 1020.2 1.2
28/02:30am 10.9 3.0 6.4 74 2.1 NW 37 41 20 22 1020.5 - 1.2
28/02:00am 10.8 1.5 4.9 67 2.7 NW 43 50 23 27 1020.6 - 1.2
28/01:30am 10.7 1.7 6.2 74 2.1 NW 43 48 23 26 1020.7 - 1.2
28/01:00am 10.7 1.7 6.5 75 2.0 WNW 43 52 23 28 1020.7 - 1.2
28/12:30am 10.8 1.9 6.8 76 1.9 WNW 43 48 23 26 1020.5 - 1.2
28/12:00am 11.0 3.4 7.5 79 1.7 WNW 37 43 20 23 1020.6 1020.6 1.2
 
Date/Time
EDT
Temp
°C
App
Temp
°C
Dew
Point
Rel
Hum
%
Delta-T
°C
Wind Press
QNH
hPa
Press
MSL
hPa
Rain
since 9 am
mm
Dir
 
Spd
km/h
Gust
km/h
Spd
kts
Gust
kts
27/11:30pm 11.1 4.2 7.4 78 1.8 WNW 33 39 18 21 1020.7 - 1.2
27/11:00pm 11.2 4.5 7.3 77 1.9 WNW 32 41 17 22 1020.8 - 1.2
27/10:30pm 11.1 5.3 8.0 81 1.5 W 28 37 15 20 1020.9 - 1.2
27/10:00pm 11.3 6.8 8.5 83 1.4 W 22 30 12 16 1020.9 - 1.2
27/09:30pm 11.2 7.1 7.7 79 1.7 W 19 24 10 13 1020.8 - 1.2
27/09:00pm 11.1 6.0 7.6 79 1.7 WSW 24 30 13 16 1020.7 1020.7 1.2
27/08:30pm 11.1 5.9 7.1 76 1.9 SW 24 32 13 17 1020.5 - 1.2
27/08:00pm 10.8 5.3 7.7 81 1.5 SSW 26 35 14 19 1020.2 - 1.2
27/07:30pm 10.9 4.5 8.7 86 1.1 SSW 32 41 17 22 1019.8 - 1.2
27/07:00pm 11.4 5.2 9.4 87 1.0 SSW 32 43 17 23 1019.6 - 1.2
27/06:30pm 11.4 5.3 9.8 90 0.8 SSW 32 43 17 23 1019.2 - 1.2
27/06:00pm 12.0 5.3 10.9 93 0.6 SSW 37 43 20 23 1018.7 1018.6 1.0
27/05:30pm 12.7 5.8 10.2 85 1.3 S 37 43 20 23 1018.4 - 0.6
27/05:00pm 12.7 4.9 9.8 82 1.5 S 41 46 22 25 1018.0 - 0.6
27/04:30pm 12.9 4.8 10.2 84 1.4 S 43 50 23 27 1017.9 - 0.6
27/04:00pm 13.2 3.8 10.1 81 1.6 S 50 56 27 30 1017.6 - 0.6
27/03:30pm 13.4 4.5 10.5 82 1.5 S 48 54 26 29 1017.4 - 0.6
27/03:00pm 13.4 4.9 10.7 84 1.4 SSE 46 59 25 32 1017.2 1017.0 0.6
27/02:30pm 13.0 1.6 10.5 85 1.3 SSE 61 67 33 36 1016.4 - 0.6
27/02:07pm 12.7 1.0 10.8 88 1.0 S 63 69 34 37 1016.1 - 0.6
27/02:02pm 12.4 3.1 10.7 89 0.9 SE 50 59 27 32 1016.7 - 0.6
27/02:00pm 12.3 6.8 10.4 88 1.0 ESE 30 54 16 29 1016.7 - 0.6
27/01:48pm 12.1 6.2 10.6 90 0.8 ESE 32 76 17 41 1016.4 - 0.4
27/01:47pm 12.3 1.7 10.6 89 0.9 SSE 57 76 31 41 1015.9 - 0.4
27/01:35pm 12.2 1.8 10.7 90 0.8 SSE 56 63 30 34 1016.5 - 0.4
27/01:30pm 11.7 6.0 9.9 89 0.9 ESE 30 69 16 37 1016.5 - 0.4
27/01:26pm 12.1 7.8 10.6 90 0.8 E 24 69 13 37 1016.0 - 0.4
27/01:22pm 12.3 0.6 10.8 90 0.8 SSE 63 69 34 37 1016.1 - 0.4
27/01:10pm 12.6 3.7 10.7 88 1.0 ESE 48 74 26 40 1015.8 - 0.0
27/01:00pm 13.1 0.2 10.6 85 1.3 S 69 76 37 41 1015.7 - 0.0
27/12:30pm 13.1 1.7 10.6 85 1.3 SSE 61 74 33 40 1015.5 - 0.0
27/12:24pm 13.4 2.3 10.3 81 1.6 SE 59 78 32 42 1015.8 - 0.0
27/12:00pm 13.1 -0.6 9.8 80 1.7 SSE 72 82 39 44 1015.1 1015.2 0.0
27/11:30am 12.8 -1.7 9.7 81 1.6 SSE 76 85 41 46 1014.5 - 0.0
27/11:00am 12.7 -2.2 9.6 81 1.6 S 78 85 42 46 1014.0 - 0.0
27/10:30am 12.5 -3.1 9.8 83 1.4 S 82 91 44 49 1013.5 - 0.0
27/10:00am 12.5 -2.3 9.8 83 1.4 S 78 87 42 47 1013.5 - 0.0
27/09:30am 12.4 -1.7 9.7 83 1.4 SSE 74 87 40 47 1013.0 - 0.0
27/09:00am 12.0 1.1 8.8 81 1.6 S 56 83 30 45 1012.5 1012.4 13.8
27/08:57am 12.0 -0.6 8.8 81 1.6 SSE 65 83 35 45 1012.4 - 13.8
27/08:30am 11.7 -1.8 8.9 83 1.4 SSE 70 87 38 47 1011.9 - 13.8
27/08:16am 11.6 -1.3 9.2 85 1.2 SSE 67 85 36 46 1012.0 - 13.8
27/08:10am 11.7 -1.1 9.5 86 1.1 SE 67 83 36 45 1012.0 - 13.8
27/08:05am 11.7 2.9 9.5 86 1.1 SE 46 85 25 46 1012.1 - 13.8
27/08:00am 11.7 -1.1 9.7 87 1.0 SSE 67 85 36 46 1011.7 - 13.8
27/07:57am 11.8 -0.5 10.1 89 0.9 SSE 65 83 35 45 1011.6 - 13.8
27/07:45am 11.7 -0.5 10.3 91 0.7 SSE 65 69 35 37 1011.8 - 13.8
27/07:41am 11.6 5.5 10.4 92 0.6 SE 33 69 18 37 1012.0 - 13.8
27/07:39am 11.7 8.2 10.3 91 0.7 E 19 69 10 37 1012.0 - 13.8
27/07:30am 11.7 3.4 10.1 90 0.8 SE 44 72 24 39 1011.6 - 13.8
27/07:06am 11.3 2.6 10.1 92 0.6 SSE 46 69 25 37 1011.3 - 13.6
27/07:05am 11.2 5.2 10.0 92 0.6 E 32 50 17 27 1011.3 - 13.6
27/07:00am 11.3 7.8 10.3 94 0.5 N 19 67 10 36 1011.4 - 13.4
27/06:53am 11.7 5.8 10.3 91 0.7 E 32 74 17 40 1010.9 - 13.0
27/06:42am 11.7 1.2 10.3 91 0.7 SSE 56 69 30 37 1010.9 - 13.0
27/06:40am 11.7 6.1 10.2 90 0.8 ESE 30 69 16 37 1010.9 - 13.0
27/06:30am 11.4 1.6 10.2 92 0.6 SSE 52 63 28 34 1010.9 - 12.8
27/06:26am 11.4 0.8 10.0 91 0.7 SSE 56 63 30 34 1010.9 - 12.8
27/06:00am 11.4 7.4 10.4 94 0.5 ENE 22 50 12 27 1010.8 1010.8 12.4
27/05:30am 11.6 9.4 10.8 95 0.4 N 13 24 7 13 1010.6 - 11.2
27/05:00am 11.2 8.6 10.8 97 0.2 N 15 83 8 45 1010.2 - 10.8
27/04:55am 11.4 7.6 11.0 97 0.2 ENE 22 83 12 45 1009.7 - 10.6
27/04:52am 11.5 0.2 10.9 96 0.3 S 61 83 33 45 1009.3 - 10.4
27/04:51am 11.3 0.9 10.7 96 0.3 S 56 69 30 37 1010.1 - 10.2
27/04:49am 11.0 5.4 10.2 95 0.4 SSW 30 57 16 31 1010.6 - 10.0
27/04:30am 10.5 2.2 10.1 97 0.2 NW 44 50 24 27 1010.1 - 8.2
27/04:00am 10.4 2.6 9.6 95 0.4 NW 41 46 22 25 1010.3 - 7.2
27/03:30am 10.0 4.4 8.8 92 0.6 WNW 28 35 15 19 1011.0 - 6.8
27/03:00am 10.1 6.5 8.5 90 0.8 WNW 17 22 9 12 1011.3 1011.2 6.6
27/02:30am 10.2 7.3 8.2 87 1.0 W 13 17 7 9 1011.7 - 6.4
27/02:00am 10.2 6.1 7.7 84 1.2 NW 19 22 10 12 1011.3 - 6.2
27/01:30am 9.5 6.1 7.8 89 0.8 N 15 19 8 10 1011.6 - 6.2
27/01:00am 10.1 7.7 7.2 82 1.4 W 9 13 5 7 1011.9 - 6.2
27/12:30am 9.9 7.4 6.7 80 1.5 NNW 9 11 5 6 1011.9 - 6.2
27/12:00am 9.5 6.3 6.7 83 1.3 NNW 13 15 7 8 1011.8 1011.7 6.2
 
Date/Time
EDT
Temp
°C
App
Temp
°C
Dew
Point
Rel
Hum
%
Delta-T
°C
Wind Press
QNH
hPa
Press
MSL
hPa
Rain
since 9 am
mm
Dir
 
Spd
km/h
Gust
km/h
Spd
kts
Gust
kts
26/11:30pm 9.2 6.1 7.1 87 1.0 NNW 13 17 7 9 1011.7 - 6.2
26/11:00pm 9.1 5.9 6.8 85 1.1 N 13 19 7 10 1011.7 - 6.2
26/10:30pm 9.0 5.4 6.7 85 1.1 NNW 15 19 8 10 1011.8 - 6.2
26/10:00pm 9.1 5.9 7.0 87 1.0 NNW 13 17 7 9 1012.0 - 6.2
26/09:30pm 9.7 6.0 6.5 80 1.5 NNW 15 20 8 11 1011.8 - 6.2
26/09:00pm 9.6 6.5 7.1 84 1.2 NNW 13 24 7 13 1011.5 1011.3 6.2
26/08:30pm 9.8 5.4 7.3 84 1.2 NNW 20 28 11 15 1010.7 - 6.2
26/08:00pm 10.0 5.5 6.8 80 1.5 NNW 20 28 11 15 1010.7 - 6.2
26/07:30pm 9.9 5.5 7.4 84 1.2 NNW 20 28 11 15 1010.6 - 6.2
26/07:00pm 10.0 4.8 7.1 82 1.4 NNW 24 32 13 17 1010.2 - 6.2
26/06:30pm 10.2 4.8 7.9 86 1.1 NNW 26 32 14 17 1009.8 - 6.2
26/06:00pm 10.6 5.7 8.4 86 1.1 NNW 24 30 13 16 1010.0 1009.9 6.2
26/05:30pm 10.1 4.5 8.9 92 0.6 NNW 28 33 15 18 1010.0 - 6.2
26/05:00pm 9.7 3.2 8.9 95 0.4 NNW 33 41 18 22 1009.9 - 6.2
26/04:30pm 9.6 2.7 8.8 95 0.4 NW 35 43 19 23 1009.8 - 5.8
26/04:00pm 9.3 1.6 8.7 96 0.3 NW 39 44 21 24 1009.8 - 5.6
26/03:30pm 9.6 1.7 9.2 97 0.2 NW 41 46 22 25 1009.8 - 4.0

Other Formats:

Comma delimited format used in spreadsheet applications
http://www.bom.gov.au/fwo/IDT60801/IDT60801.94962.axf

JavaScript Object Notation format (JSON) in row-major order
http://www.bom.gov.au/fwo/IDT60801/IDT60801.94962.json